Terminal Aerodrome Forecast
Issued by NWS

Home | Current Version | Previous Version | Text Only | Print | Product List | Glossary On
Versions: 1 2 3 4 5 6 7 8 9 10 11 12 13 14 15 16 17 18 19 20 21 22 23 24 25 26 27 28 29 30 31 32 33 34 35 36 37 38 39 40 41 42 43 44 45 46 47 48 49 50
000
FTUS46 KSEW 162351 AAA
TAFHQM
TAF AMD
KHQM 162351Z 1700/1724 28012KT P6SM SCT020 SCT250
     FM170600 22008KT P6SM SCT020 BKN050
      TEMPO 1706/1710 BKN020 BKN050
     FM171000 20010KT P6SM OVC020
     FM171200 16012KT 4SM -RA BR OVC020
      TEMPO 1712/1716 2SM RA BR OVC010
     FM171700 25012KT P6SM -SHRA BKN020 BKN040
     FM172100 29012KT P6SM -SHRA BKN025 BKN050=

USA.gov is the U.S. government's official web portal to all federal, state and local government web resources and services.